Time;durP1;ratioP1;P1;durP2;ratioP2;P2;SDS_P1;SDS_P2;PMS_P1;PMS_P2;Temp;Humidity;BMP_temperature;BMP_pressure;BME280_temperature;BME280_humidity;BME280_pressure;Samples;Min_cycle;Max_cycle;Signal;HPM_P1;HPM_P2
2023/12/06 00:00:44;;;;;;;2.78;2.20;;;4.80;75.50;;;;;;5047803;28;20032;-61
2023/12/06 00:03:10;;;;;;;2.10;1.90;;;4.80;75.30;;;;;;5041519;28;20480;-60
2023/12/06 00:05:36;;;;;;;2.88;2.10;;;4.80;75.50;;;;;;5044555;28;20039;-60
2023/12/06 00:08:01;;;;;;;2.30;2.10;;;4.80;75.50;;;;;;5040169;28;20045;-62
2023/12/06 00:10:27;;;;;;;2.17;1.92;;;4.80;75.60;;;;;;5044173;28;20621;-62
2023/12/06 00:12:53;;;;;;;2.08;1.88;;;4.80;75.50;;;;;;5046228;28;20037;-61
2023/12/06 00:15:19;;;;;;;2.72;1.90;;;4.80;75.50;;;;;;5040640;28;20025;-61
2023/12/06 00:17:44;;;;;;;2.20;2.00;;;4.80;75.60;;;;;;5044611;28;20389;-60
2023/12/06 00:20:10;;;;;;;1.80;1.70;;;4.80;75.60;;;;;;5040670;28;20070;-59
2023/12/06 00:22:36;;;;;;;1.80;1.70;;;4.80;75.60;;;;;;5044422;28;20029;-61
2023/12/06 00:25:02;;;;;;;1.98;1.80;;;4.80;75.70;;;;;;5042514;28;20028;-61
2023/12/06 00:27:27;;;;;;;2.20;2.00;;;4.80;75.60;;;;;;5037473;28;20060;-61
2023/12/06 00:29:53;;;;;;;1.90;1.80;;;4.80;75.60;;;;;;5042587;28;20036;-62
2023/12/06 00:32:19;;;;;;;3.38;2.20;;;4.80;75.90;;;;;;5044988;28;20029;-61
2023/12/06 00:34:44;;;;;;;1.98;1.88;;;4.80;75.50;;;;;;5045191;28;20028;-59
2023/12/06 00:37:10;;;;;;;2.08;1.92;;;4.80;75.70;;;;;;5040622;28;20459;-60
2023/12/06 00:39:36;;;;;;;2.33;1.90;;;4.80;75.60;;;;;;5042331;28;20025;-61
2023/12/06 00:42:02;;;;;;;1.80;1.70;;;4.80;75.70;;;;;;5042148;28;20041;-61
2023/12/06 00:44:27;;;;;;;2.30;2.10;;;4.80;75.50;;;;;;5040372;28;20048;-60
2023/12/06 00:46:53;;;;;;;5.53;2.17;;;4.80;75.60;;;;;;4960857;28;20126;-61
2023/12/06 00:49:19;;;;;;;1.73;1.63;;;4.80;75.60;;;;;;5043470;28;20035;-61
2023/12/06 00:51:44;;;;;;;1.63;1.52;;;4.80;75.70;;;;;;5044610;28;20143;-59
2023/12/06 00:54:11;;;;;;;1.80;1.70;;;4.80;75.80;;;;;;5042576;28;20032;-60
2023/12/06 00:56:36;;;;;;;3.92;2.45;;;4.80;75.70;;;;;;5044204;28;20113;-60
2023/12/06 00:59:04;;;;;;;3.95;2.13;;;4.80;75.90;;;;;;5044886;28;20096;-60
2023/12/06 01:01:29;;;;;;;3.38;2.53;;;4.80;75.90;;;;;;5041506;28;20029;-61
2023/12/06 01:03:55;;;;;;;3.35;2.70;;;4.80;75.90;;;;;;5045503;28;20040;-61
2023/12/06 01:06:22;;;;;;;3.17;2.60;;;4.80;76.00;;;;;;5048110;28;20028;-60
2023/12/06 01:08:49;;;;;;;3.83;2.60;;;4.80;76.00;;;;;;5044819;28;20380;-60
2023/12/06 01:11:15;;;;;;;5.10;2.50;;;4.80;76.00;;;;;;5044023;28;20487;-60
2023/12/06 01:13:40;;;;;;;3.08;2.40;;;4.90;76.10;;;;;;5040855;28;20103;-60
2023/12/06 01:16:06;;;;;;;3.75;2.60;;;4.90;76.10;;;;;;5039508;28;20159;-60
2023/12/06 01:18:33;;;;;;;2.92;2.45;;;4.90;76.10;;;;;;5041394;28;20033;-61
2023/12/06 01:20:59;;;;;;;2.25;1.92;;;4.90;76.10;;;;;;5046633;28;20025;-60
2023/12/06 01:23:25;;;;;;;2.13;1.85;;;4.90;75.70;;;;;;5047687;28;20383;-61
2023/12/06 01:25:50;;;;;;;2.45;2.20;;;4.90;75.90;;;;;;5043895;28;20083;-61
2023/12/06 01:28:16;;;;;;;4.80;2.60;;;4.90;75.90;;;;;;5043867;28;20103;-60
2023/12/06 01:30:41;;;;;;;1.80;1.70;;;4.90;76.00;;;;;;5048580;28;20322;-60
2023/12/06 01:33:07;;;;;;;1.52;1.42;;;4.90;76.00;;;;;;5047354;28;20029;-61
2023/12/06 01:35:32;;;;;;;1.60;1.50;;;4.90;75.90;;;;;;5049569;28;20032;-61
2023/12/06 01:37:58;;;;;;;1.70;1.60;;;4.90;75.90;;;;;;5044930;28;20119;-61
2023/12/06 01:40:24;;;;;;;1.50;1.40;;;4.90;75.90;;;;;;5044575;28;20030;-61
2023/12/06 01:42:49;;;;;;;1.60;1.50;;;4.90;75.90;;;;;;5046929;28;20419;-60
2023/12/06 01:45:15;;;;;;;1.35;1.25;;;4.90;76.00;;;;;;5044458;28;20028;-60
2023/12/06 01:47:43;;;;;;;1.58;1.48;;;4.90;75.70;;;;;;5043719;28;20436;-61
2023/12/06 01:50:10;;;;;;;1.50;1.40;;;4.90;75.90;;;;;;5047567;28;20524;-61
2023/12/06 01:52:36;;;;;;;1.30;1.20;;;4.90;75.90;;;;;;5048067;28;20033;-61
2023/12/06 01:55:01;;;;;;;1.50;1.38;;;4.90;75.80;;;;;;5045258;28;20029;-60
2023/12/06 01:57:29;;;;;;;2.40;2.20;;;4.90;75.90;;;;;;5047239;28;20025;-60
2023/12/06 01:59:56;;;;;;;2.60;2.40;;;4.90;75.90;;;;;;5045037;28;20090;-60
2023/12/06 02:02:22;;;;;;;2.10;1.90;;;4.90;75.90;;;;;;5045708;28;20036;-60
2023/12/06 02:04:48;;;;;;;1.70;1.60;;;4.90;75.90;;;;;;5047920;28;20013;-60
2023/12/06 02:07:15;;;;;;;1.60;1.50;;;4.90;76.00;;;;;;5044215;28;20063;-60
2023/12/06 02:09:41;;;;;;;2.13;1.40;;;4.90;76.00;;;;;;5042727;28;20077;-62
2023/12/06 02:12:07;;;;;;;1.52;1.30;;;4.90;76.10;;;;;;5043195;28;20380;-61
2023/12/06 02:14:35;;;;;;;1.42;1.33;;;4.90;75.90;;;;;;5045140;28;20025;-61
2023/12/06 02:17:05;;;;;;;1.70;1.60;;;4.90;75.90;;;;;;5046178;28;20032;-61
2023/12/06 02:19:31;;;;;;;1.50;1.40;;;4.90;75.90;;;;;;5045375;28;20132;-59
2023/12/06 02:21:58;;;;;;;1.85;1.75;;;4.90;75.90;;;;;;5044429;28;20041;-61
2023/12/06 02:24:30;;;;;;;3.85;2.40;;;4.90;75.90;;;;;;5050504;28;20539;-61
2023/12/06 02:26:56;;;;;;;2.15;1.95;;;4.90;76.70;;;;;;5053232;28;20048;-61
2023/12/06 02:29:25;;;;;;;1.70;1.60;;;4.90;75.90;;;;;;5046690;28;20488;-60
2023/12/06 02:31:51;;;;;;;1.60;1.50;;;4.90;75.90;;;;;;5044655;28;20021;-62
2023/12/06 02:34:20;;;;;;;1.50;1.40;;;4.90;75.90;;;;;;5048817;28;20037;-61
2023/12/06 02:36:50;;;;;;;1.80;1.63;;;4.90;75.90;;;;;;5048617;28;20049;-61
2023/12/06 02:39:17;;;;;;;1.45;1.35;;;4.90;75.90;;;;;;5047539;28;20043;-61
2023/12/06 02:41:43;;;;;;;1.60;1.50;;;4.90;75.80;;;;;;5047636;28;20025;-61
2023/12/06 02:44:09;;;;;;;1.55;1.25;;;4.90;75.90;;;;;;5049161;28;20021;-60
2023/12/06 02:46:37;;;;;;;1.33;1.23;;;4.90;75.90;;;;;;5051362;28;20440;-60
2023/12/06 02:49:02;;;;;;;1.10;1.10;;;4.90;75.80;;;;;;5048844;28;20044;-61
2023/12/06 02:51:28;;;;;;;1.25;1.20;;;4.90;75.80;;;;;;5050466;28;20032;-61
2023/12/06 02:53:54;;;;;;;1.90;1.80;;;4.90;75.90;;;;;;5052813;28;20044;-60
2023/12/06 02:56:20;;;;;;;3.17;2.90;;;4.90;75.80;;;;;;5048087;28;20025;-60
2023/12/06 02:58:45;;;;;;;1.90;1.80;;;4.90;75.80;;;;;;5046412;28;20731;-61
2023/12/06 03:01:11;;;;;;;1.40;1.30;;;4.90;75.90;;;;;;5044778;28;20036;-60
2023/12/06 03:03:37;;;;;;;1.30;1.20;;;4.90;75.90;;;;;;5052998;28;20363;-60
2023/12/06 03:06:03;;;;;;;1.27;1.15;;;4.90;75.90;;;;;;5053861;28;20029;-61
2023/12/06 03:08:28;;;;;;;2.00;1.80;;;4.90;75.90;;;;;;5042647;28;20041;-60
2023/12/06 03:10:54;;;;;;;1.80;1.70;;;4.90;75.90;;;;;;5047490;28;20071;-61
2023/12/06 03:13:20;;;;;;;1.42;1.30;;;4.90;76.00;;;;;;5046271;28;20529;-60
2023/12/06 03:15:45;;;;;;;1.40;1.30;;;4.90;75.90;;;;;;5045586;28;20028;-60
2023/12/06 03:18:11;;;;;;;1.50;1.40;;;4.90;76.00;;;;;;5047885;28;20048;-61
2023/12/06 03:20:36;;;;;;;1.95;1.85;;;4.90;76.00;;;;;;5050577;28;20032;-61
2023/12/06 03:23:02;;;;;;;2.38;2.17;;;4.90;76.00;;;;;;5050974;28;20120;-59
2023/12/06 03:25:28;;;;;;;2.72;2.53;;;4.90;76.00;;;;;;5053208;28;20032;-60
2023/12/06 03:27:54;;;;;;;1.90;1.80;;;4.90;76.10;;;;;;5051240;28;20470;-60
2023/12/06 03:30:20;;;;;;;1.67;1.58;;;4.90;76.10;;;;;;5050260;28;20025;-60
2023/12/06 03:32:46;;;;;;;1.20;1.20;;;4.90;76.10;;;;;;5046746;28;20399;-60
2023/12/06 03:35:11;;;;;;;1.40;1.30;;;4.90;76.00;;;;;;5044009;28;20425;-60
2023/12/06 03:37:37;;;;;;;1.40;1.30;;;4.90;75.90;;;;;;5047804;28;20025;-60
2023/12/06 03:40:03;;;;;;;1.42;1.33;;;4.90;76.00;;;;;;5051535;28;20521;-60
2023/12/06 03:42:29;;;;;;;1.40;1.30;;;4.90;75.90;;;;;;5046674;28;20029;-62
2023/12/06 03:44:54;;;;;;;1.15;1.15;;;5.00;76.00;;;;;;5043096;28;20507;-59
2023/12/06 03:47:20;;;;;;;3.45;1.30;;;5.00;76.00;;;;;;4977442;28;20048;-60
2023/12/06 03:49:46;;;;;;;1.00;1.00;;;5.00;76.00;;;;;;5048756;28;20025;-60
2023/12/06 03:52:11;;;;;;;1.40;1.30;;;5.00;76.00;;;;;;5048939;28;20029;-59
2023/12/06 03:54:37;;;;;;;1.00;1.00;;;5.00;76.00;;;;;;5040472;28;20032;-61
2023/12/06 03:57:03;;;;;;;1.58;1.48;;;5.00;76.00;;;;;;5052272;28;20426;-61
2023/12/06 03:59:29;;;;;;;1.90;1.80;;;5.00;75.90;;;;;;5038871;28;20064;-61
2023/12/06 04:01:55;;;;;;;1.27;1.27;;;5.00;75.90;;;;;;5049928;28;20662;-61
2023/12/06 04:04:20;;;;;;;1.10;1.10;;;5.00;75.90;;;;;;5050809;28;20040;-60
2023/12/06 04:06:46;;;;;;;1.02;1.02;;;5.00;75.90;;;;;;5045909;28;20033;-61
2023/12/06 04:09:11;;;;;;;1.27;1.10;;;5.00;75.90;;;;;;5050109;28;20132;-61
2023/12/06 04:11:37;;;;;;;1.00;1.00;;;5.10;76.60;;;;;;5045010;28;20709;-59
2023/12/06 04:14:03;;;;;;;1.50;1.40;;;5.00;75.80;;;;;;5043384;28;20021;-61
2023/12/06 04:16:32;;;;;;;1.80;1.70;;;5.10;75.90;;;;;;5048338;28;20024;-60
2023/12/06 04:18:57;;;;;;;1.50;1.40;;;5.10;75.90;;;;;;5050027;28;20037;-60
2023/12/06 04:21:24;;;;;;;1.40;1.30;;;5.10;75.80;;;;;;5049307;28;20037;-61
2023/12/06 04:23:50;;;;;;;1.20;1.20;;;5.10;75.80;;;;;;5045951;28;20032;-61
2023/12/06 04:26:15;;;;;;;1.40;1.30;;;5.10;75.80;;;;;;5048458;28;20053;-61
2023/12/06 04:28:41;;;;;;;1.70;1.60;;;5.10;75.80;;;;;;5046902;28;20052;-61
2023/12/06 04:31:07;;;;;;;1.65;1.55;;;5.10;75.70;;;;;;5048642;28;20139;-61
2023/12/06 04:33:32;;;;;;;1.63;1.52;;;5.10;75.80;;;;;;5050049;28;20032;-61
2023/12/06 04:35:58;;;;;;;2.67;1.83;;;5.10;75.90;;;;;;5045674;28;20461;-60
2023/12/06 04:38:24;;;;;;;1.75;1.65;;;5.10;75.90;;;;;;5049250;28;20035;-60
2023/12/06 04:40:49;;;;;;;2.08;1.60;;;5.10;75.90;;;;;;5052886;28;20028;-61
2023/12/06 04:43:17;;;;;;;2.85;1.80;;;5.10;75.90;;;;;;5044667;28;20021;-60
2023/12/06 04:45:43;;;;;;;5.13;2.97;;;5.10;75.90;;;;;;4965014;28;20396;-60
2023/12/06 04:48:08;;;;;;;3.25;2.95;;;5.10;75.90;;;;;;5048087;28;20495;-61
2023/12/06 04:50:34;;;;;;;3.38;2.83;;;5.10;75.90;;;;;;5048329;28;20061;-60
2023/12/06 04:53:00;;;;;;;4.63;3.13;;;5.10;75.90;;;;;;5051432;28;20353;-61
2023/12/06 04:55:25;;;;;;;3.60;2.65;;;5.10;75.90;;;;;;5047709;28;20072;-61
2023/12/06 04:57:51;;;;;;;3.28;2.67;;;5.10;75.90;;;;;;5050465;28;20036;-61
2023/12/06 05:00:17;;;;;;;6.53;2.50;;;5.10;75.90;;;;;;5045577;28;20140;-60
2023/12/06 05:02:43;;;;;;;4.55;2.70;;;5.10;75.90;;;;;;5048900;28;20036;-61
2023/12/06 05:05:09;;;;;;;6.22;3.58;;;5.10;75.90;;;;;;5045506;28;20021;-61
2023/12/06 05:07:35;;;;;;;9.40;4.95;;;5.10;75.90;;;;;;5045463;28;20044;-60
2023/12/06 05:10:00;;;;;;;8.57;4.28;;;5.10;75.90;;;;;;5052868;28;20120;-60
2023/12/06 05:12:26;;;;;;;6.15;3.78;;;5.20;76.00;;;;;;5046708;28;20075;-60
2023/12/06 05:14:52;;;;;;;3.53;2.95;;;5.20;76.00;;;;;;5045817;28;20025;-60
2023/12/06 05:17:17;;;;;;;3.65;2.80;;;5.20;75.80;;;;;;5048334;28;20024;-60
2023/12/06 05:19:43;;;;;;;3.08;2.63;;;5.20;75.90;;;;;;5049170;28;20021;-60
2023/12/06 05:22:09;;;;;;;2.78;2.47;;;5.20;76.00;;;;;;5043663;28;20025;-59
2023/12/06 05:24:34;;;;;;;2.40;2.17;;;5.20;75.90;;;;;;5054560;28;20047;-61
2023/12/06 05:27:00;;;;;;;3.60;2.50;;;5.20;75.80;;;;;;5046349;28;20731;-61
2023/12/06 05:29:25;;;;;;;3.10;2.80;;;5.20;75.90;;;;;;5044866;28;20059;-60
2023/12/06 05:31:51;;;;;;;4.68;3.38;;;5.20;75.90;;;;;;5044059;28;20403;-59
2023/12/06 05:34:17;;;;;;;6.00;3.90;;;5.20;75.90;;;;;;5043670;28;20031;-61
2023/12/06 05:36:43;;;;;;;6.13;3.70;;;5.20;76.00;;;;;;5046175;28;20025;-60
2023/12/06 05:39:10;;;;;;;5.28;3.22;;;5.20;75.90;;;;;;5044288;28;20128;-61
2023/12/06 05:41:36;;;;;;;5.82;3.40;;;5.10;75.90;;;;;;5045271;28;20158;-61
2023/12/06 05:44:02;;;;;;;5.60;3.70;;;5.20;76.00;;;;;;5050782;28;20761;-60
2023/12/06 05:46:29;;;;;;;6.40;3.60;;;5.20;76.00;;;;;;4976654;28;20400;-61
2023/12/06 05:48:54;;;;;;;5.70;3.58;;;5.20;76.10;;;;;;5051898;28;20040;-60
2023/12/06 05:51:20;;;;;;;4.45;3.03;;;5.20;76.00;;;;;;5047245;28;20395;-60
2023/12/06 05:53:46;;;;;;;2.70;2.50;;;5.20;76.00;;;;;;5044691;28;20028;-60
2023/12/06 05:56:11;;;;;;;3.20;2.53;;;5.20;76.00;;;;;;5045953;28;20060;-60
2023/12/06 05:58:39;;;;;;;5.22;2.60;;;5.20;76.00;;;;;;5045752;28;20100;-60
2023/12/06 06:01:04;;;;;;;3.10;2.38;;;5.20;76.00;;;;;;5050230;28;20032;-61
2023/12/06 06:03:30;;;;;;;3.20;2.53;;;5.20;76.00;;;;;;5052432;28;20029;-61
2023/12/06 06:05:56;;;;;;;2.20;2.00;;;5.20;76.00;;;;;;5056406;28;20107;-60
2023/12/06 06:08:21;;;;;;;4.93;2.00;;;5.30;76.00;;;;;;5053406;28;20124;-60
2023/12/06 06:10:47;;;;;;;5.00;2.25;;;5.30;76.10;;;;;;5048138;28;20056;-61
2023/12/06 06:13:13;;;;;;;2.70;1.80;;;5.30;76.00;;;;;;5049965;28;20028;-60
2023/12/06 06:15:38;;;;;;;1.80;1.70;;;5.30;76.10;;;;;;5046676;28;20035;-60
2023/12/06 06:18:05;;;;;;;1.80;1.70;;;5.30;76.10;;;;;;5049506;28;20483;-60
2023/12/06 06:20:33;;;;;;;2.15;1.88;;;5.30;76.10;;;;;;5051761;28;20082;-60
2023/12/06 06:22:59;;;;;;;4.38;2.10;;;5.30;76.10;;;;;;5048324;28;20025;-61
2023/12/06 06:25:25;;;;;;;2.83;1.95;;;5.30;76.10;;;;;;5051769;28;20100;-61
2023/12/06 06:27:50;;;;;;;4.90;3.35;;;5.30;76.10;;;;;;5052755;28;20052;-60
2023/12/06 06:30:16;;;;;;;5.93;3.15;;;5.30;76.00;;;;;;5049323;28;20028;-60
2023/12/06 06:32:42;;;;;;;6.05;3.03;;;5.30;75.90;;;;;;5046872;28;20028;-60
2023/12/06 06:35:07;;;;;;;5.57;3.30;;;5.30;76.00;;;;;;5049762;28;20044;-60
2023/12/06 06:37:34;;;;;;;4.95;2.92;;;5.30;75.90;;;;;;5045808;28;20036;-60
2023/12/06 06:39:59;;;;;;;3.45;2.30;;;5.40;76.00;;;;;;5048821;28;20547;-62
2023/12/06 06:42:25;;;;;;;3.83;2.78;;;5.40;76.00;;;;;;5051639;28;20108;-60
2023/12/06 06:44:55;;;;;;;3.10;2.50;;;5.40;76.00;;;;;;5050940;28;20031;-60
2023/12/06 06:47:21;;;;;;;2.55;2.15;;;5.40;76.00;;;;;;5048105;28;20064;-62
2023/12/06 06:49:47;;;;;;;2.50;2.10;;;5.40;76.00;;;;;;5042842;28;20037;-62
2023/12/06 06:52:13;;;;;;;7.70;4.07;;;5.40;76.00;;;;;;5046661;28;20025;-60
2023/12/06 06:54:38;;;;;;;6.15;3.53;;;5.30;75.90;;;;;;5045829;28;20034;-60
2023/12/06 06:57:04;;;;;;;5.55;3.33;;;5.40;76.00;;;;;;5045168;28;20072;-61
2023/12/06 06:59:29;;;;;;;12.18;4.90;;;5.40;76.00;;;;;;5052610;28;20033;-61
2023/12/06 07:01:55;;;;;;;9.48;4.30;;;5.40;76.00;;;;;;5050769;28;20033;-61
2023/12/06 07:04:21;;;;;;;6.80;4.05;;;5.40;75.90;;;;;;5050165;28;20040;-60
2023/12/06 07:06:46;;;;;;;6.32;3.75;;;5.40;76.00;;;;;;5030676;28;20036;-60
2023/12/06 07:09:12;;;;;;;7.18;3.25;;;5.40;76.70;;;;;;5047929;28;20037;-60
2023/12/06 07:11:38;;;;;;;6.07;3.40;;;5.40;76.00;;;;;;5050784;28;20033;-60
2023/12/06 07:14:03;;;;;;;4.63;3.05;;;5.40;76.00;;;;;;5050451;28;20028;-62
2023/12/06 07:16:29;;;;;;;6.45;3.65;;;5.40;76.10;;;;;;5047176;28;20135;-62
2023/12/06 07:18:55;;;;;;;11.77;3.80;;;5.40;76.20;;;;;;5042988;28;20460;-63
2023/12/06 07:21:20;;;;;;;11.20;4.13;;;5.40;76.20;;;;;;5049930;28;20574;-62
2023/12/06 07:23:46;;;;;;;3.53;2.60;;;5.50;76.30;;;;;;5050373;28;20380;-62
2023/12/06 07:26:11;;;;;;;3.60;2.58;;;5.50;76.10;;;;;;5050986;28;20534;-63
2023/12/06 07:28:37;;;;;;;2.40;2.20;;;5.50;76.20;;;;;;5052240;28;20451;-63
2023/12/06 07:31:03;;;;;;;2.58;2.28;;;5.50;76.80;;;;;;5047816;28;20028;-63
2023/12/06 07:33:29;;;;;;;2.25;2.00;;;5.50;76.10;;;;;;5043712;28;20025;-63
2023/12/06 07:35:54;;;;;;;4.22;2.03;;;5.50;76.10;;;;;;5045871;28;20138;-63
2023/12/06 07:38:21;;;;;;;2.55;2.00;;;5.60;76.20;;;;;;5046579;28;20028;-63
2023/12/06 07:40:47;;;;;;;1.95;1.83;;;5.60;76.00;;;;;;5051249;28;20056;-62
2023/12/06 07:43:13;;;;;;;3.38;1.80;;;5.60;76.10;;;;;;5049491;28;20027;-62
2023/12/06 07:45:39;;;;;;;6.15;1.73;;;5.60;76.10;;;;;;5045198;28;20479;-63
2023/12/06 07:48:05;;;;;;;2.10;1.88;;;5.60;76.10;;;;;;5044989;28;20049;-62
2023/12/06 07:50:31;;;;;;;2.10;1.90;;;5.70;76.10;;;;;;5046238;28;20041;-62
2023/12/06 07:52:56;;;;;;;2.00;1.80;;;5.70;76.00;;;;;;5048897;28;20029;-64
2023/12/06 07:55:22;;;;;;;2.15;1.70;;;5.70;75.90;;;;;;5050859;28;20017;-63
2023/12/06 07:57:48;;;;;;;3.15;1.92;;;5.70;75.80;;;;;;5051795;28;20039;-62
2023/12/06 08:00:14;;;;;;;2.42;2.05;;;5.70;75.70;;;;;;5048000;28;23470;-63
2023/12/06 08:02:42;;;;;;;2.45;2.13;;;5.80;75.80;;;;;;5042008;28;20025;-62
2023/12/06 08:05:11;;;;;;;2.10;1.90;;;5.80;75.80;;;;;;5044904;28;20035;-63
2023/12/06 08:07:37;;;;;;;2.05;1.83;;;5.80;75.80;;;;;;5047212;28;20022;-63
2023/12/06 08:10:08;;;;;;;1.98;1.70;;;5.80;75.70;;;;;;5041876;28;20025;-64
2023/12/06 08:12:34;;;;;;;2.20;1.83;;;5.80;75.70;;;;;;5044079;28;20035;-63
2023/12/06 08:15:00;;;;;;;2.35;1.77;;;5.80;75.70;;;;;;5050854;28;20406;-63
2023/12/06 08:17:25;;;;;;;3.10;2.10;;;5.80;75.60;;;;;;5047907;28;20051;-63
2023/12/06 08:19:51;;;;;;;2.05;1.85;;;5.90;75.70;;;;;;5041870;28;20041;-63
2023/12/06 08:22:16;;;;;;;3.63;2.13;;;5.90;75.80;;;;;;5041583;28;20031;-62
2023/12/06 08:24:42;;;;;;;1.92;1.80;;;5.90;75.60;;;;;;5040538;28;20033;-64
2023/12/06 08:27:08;;;;;;;2.80;2.10;;;5.90;75.60;;;;;;5048203;28;20369;-66
2023/12/06 08:29:33;;;;;;;2.15;1.63;;;6.00;75.70;;;;;;5045831;28;20135;-64
2023/12/06 08:31:59;;;;;;;3.33;1.88;;;6.00;75.60;;;;;;5044327;28;20128;-63
2023/12/06 08:34:26;;;;;;;2.53;1.88;;;6.00;75.50;;;;;;5050613;28;20047;-63
2023/12/06 08:36:52;;;;;;;1.80;1.58;;;6.00;75.60;;;;;;5044123;28;20033;-63
2023/12/06 08:39:17;;;;;;;2.20;1.90;;;6.10;75.60;;;;;;5047371;28;20033;-63
2023/12/06 08:41:43;;;;;;;2.42;1.92;;;6.10;75.60;;;;;;5046345;28;20032;-63
2023/12/06 08:44:08;;;;;;;2.78;2.08;;;6.20;75.60;;;;;;5061405;28;20089;-63
2023/12/06 08:46:35;;;;;;;2.38;1.90;;;6.20;75.40;;;;;;5038674;28;20041;-64
2023/12/06 08:49:01;;;;;;;2.35;2.00;;;6.20;75.20;;;;;;5046240;28;20047;-63
2023/12/06 08:51:27;;;;;;;3.45;2.55;;;6.20;75.10;;;;;;5043825;28;20028;-63
2023/12/06 08:53:53;;;;;;;3.65;2.08;;;6.30;75.00;;;;;;5044481;28;20025;-63
2023/12/06 08:56:19;;;;;;;3.72;2.90;;;6.20;74.80;;;;;;5047596;28;20463;-64
2023/12/06 08:58:44;;;;;;;3.17;1.90;;;6.20;74.80;;;;;;5049604;28;20033;-64
2023/12/06 09:01:10;;;;;;;2.20;1.90;;;6.20;74.70;;;;;;5043073;28;20063;-63
2023/12/06 09:03:36;;;;;;;1.75;1.60;;;6.30;74.70;;;;;;5046740;28;20028;-64
2023/12/06 09:06:01;;;;;;;1.83;1.58;;;6.20;74.70;;;;;;5048683;28;20094;-64
2023/12/06 09:08:27;;;;;;;2.78;1.70;;;6.20;74.80;;;;;;5043165;28;20495;-63
2023/12/06 09:10:52;;;;;;;2.38;1.92;;;6.20;74.80;;;;;;5046759;28;20898;-63
2023/12/06 09:13:19;;;;;;;2.22;2.03;;;6.20;74.70;;;;;;5047212;28;20029;-64
2023/12/06 09:15:44;;;;;;;2.15;1.90;;;6.20;75.00;;;;;;5046856;28;20074;-64
2023/12/06 09:18:10;;;;;;;4.97;2.00;;;6.30;75.00;;;;;;5045128;28;20033;-63
2023/12/06 09:20:36;;;;;;;2.97;2.17;;;6.30;75.10;;;;;;5043978;28;20435;-64
2023/12/06 09:23:01;;;;;;;3.05;2.08;;;6.30;75.70;;;;;;5048390;28;20425;-64
2023/12/06 09:25:27;;;;;;;2.10;1.70;;;6.30;75.00;;;;;;5037402;28;20029;-64
2023/12/06 09:27:53;;;;;;;2.47;2.10;;;6.30;74.90;;;;;;5050433;28;20044;-64
2023/12/06 09:30:19;;;;;;;3.05;2.10;;;6.30;74.80;;;;;;5046838;28;20018;-63
2023/12/06 09:32:45;;;;;;;3.45;1.85;;;6.30;74.70;;;;;;5048815;28;20025;-63
2023/12/06 09:35:11;;;;;;;3.60;2.25;;;6.30;74.60;;;;;;5045777;28;20160;-64
2023/12/06 09:37:37;;;;;;;3.35;1.90;;;6.30;74.80;;;;;;5045128;28;20508;-63
2023/12/06 09:40:03;;;;;;;3.72;2.50;;;6.30;74.60;;;;;;5047353;28;20197;-63
2023/12/06 09:42:29;;;;;;;2.67;2.22;;;6.30;74.70;;;;;;5043548;28;20380;-63
2023/12/06 09:44:58;;;;;;;3.33;2.25;;;6.30;74.70;;;;;;5044740;28;20044;-63
2023/12/06 09:47:24;;;;;;;7.18;2.13;;;6.30;74.70;;;;;;5040141;28;20478;-64
2023/12/06 09:49:50;;;;;;;2.63;1.80;;;6.30;74.80;;;;;;5042301;28;20044;-63
2023/12/06 09:52:21;;;;;;;3.88;2.13;;;6.30;74.80;;;;;;5041880;28;20033;-63
2023/12/06 09:54:51;;;;;;;3.92;2.40;;;6.30;74.60;;;;;;5047744;28;20089;-63
2023/12/06 09:57:17;;;;;;;2.95;2.10;;;6.30;74.60;;;;;;5042927;28;20029;-63
2023/12/06 09:59:43;;;;;;;3.90;2.53;;;6.30;74.60;;;;;;5048298;28;20361;-63
2023/12/06 10:02:08;;;;;;;4.45;2.25;;;6.30;74.70;;;;;;5042470;28;20036;-63
2023/12/06 10:04:35;;;;;;;3.10;2.30;;;6.30;74.60;;;;;;5050310;28;20017;-63
2023/12/06 10:07:01;;;;;;;3.00;2.42;;;6.30;74.80;;;;;;5041292;28;20383;-64
2023/12/06 10:09:27;;;;;;;5.65;2.90;;;6.30;74.90;;;;;;5044743;28;20051;-64
2023/12/06 10:11:53;;;;;;;6.88;2.92;;;6.30;75.00;;;;;;5048034;28;20021;-64
2023/12/06 10:14:20;;;;;;;6.25;3.03;;;6.40;75.10;;;;;;5045307;28;21046;-64
2023/12/06 10:16:47;;;;;;;8.80;3.78;;;6.40;75.10;;;;;;5047115;28;20384;-64
2023/12/06 10:19:19;;;;;;;13.20;4.55;;;6.50;75.00;;;;;;5046889;28;20020;-64
2023/12/06 10:21:47;;;;;;;8.13;4.82;;;6.50;75.00;;;;;;5044026;28;20052;-64
2023/12/06 10:24:12;;;;;;;8.73;4.82;;;6.60;74.90;;;;;;5051132;28;20147;-64
2023/12/06 10:26:39;;;;;;;10.20;5.63;;;6.60;74.90;;;;;;5045639;28;20127;-64
2023/12/06 10:29:05;;;;;;;5.20;3.53;;;6.60;74.70;;;;;;5043477;28;20037;-63
2023/12/06 10:31:38;;;;;;;5.00;3.13;;;6.60;74.40;;;;;;5044081;28;20533;-63
2023/12/06 10:34:05;;;;;;;6.25;3.10;;;6.60;74.30;;;;;;5044369;28;20595;-63
2023/12/06 10:36:31;;;;;;;3.95;2.85;;;6.60;74.00;;;;;;5046427;28;20066;-63
2023/12/06 10:38:58;;;;;;;3.67;2.60;;;6.50;74.00;;;;;;5044512;28;20025;-64
2023/12/06 10:41:26;;;;;;;5.53;3.42;;;6.50;74.00;;;;;;5044100;28;20417;-64
2023/12/06 10:43:55;;;;;;;4.18;3.33;;;6.50;74.00;;;;;;5047502;28;20064;-64
2023/12/06 10:46:21;;;;;;;3.92;3.22;;;6.40;73.90;;;;;;4967049;28;20423;-63
2023/12/06 10:48:50;;;;;;;3.47;2.60;;;6.40;73.90;;;;;;5050083;28;20044;-65
2023/12/06 10:51:17;;;;;;;4.47;3.10;;;6.40;74.00;;;;;;5044101;28;20033;-64
2023/12/06 10:53:45;;;;;;;4.55;3.40;;;6.40;74.00;;;;;;5045629;28;20028;-64
2023/12/06 10:56:14;;;;;;;3.55;2.92;;;6.40;74.10;;;;;;5051118;28;20036;-62
2023/12/06 10:58:40;;;;;;;4.43;3.08;;;6.30;74.20;;;;;;5047542;28;20037;-64
2023/12/06 11:01:08;;;;;;;3.90;3.50;;;6.30;74.30;;;;;;5047306;28;20055;-64
2023/12/06 11:03:34;;;;;;;4.88;3.78;;;6.30;74.20;;;;;;5049870;28;20108;-64
2023/12/06 11:06:10;;;;;;;5.63;3.60;;;6.30;74.20;;;;;;5051222;28;20475;-64
2023/12/06 11:08:48;;;;;;;3.20;2.80;;;6.30;74.20;;;;;;5051481;28;20056;-63
2023/12/06 11:11:36;;;;;;;5.00;3.22;;;6.30;74.10;;;;;;5042215;28;20090;-63
2023/12/06 11:14:20;;;;;;;4.72;3.58;;;6.30;74.00;;;;;;5037177;28;20041;-63
2023/12/06 11:17:16;;;;;;;4.93;3.90;;;6.30;74.10;;;;;;5049390;28;20475;-64
2023/12/06 11:19:42;;;;;;;5.97;4.72;;;6.30;74.20;;;;;;5047699;28;20021;-65
2023/12/06 11:22:08;;;;;;;4.85;4.28;;;6.30;74.10;;;;;;5053249;28;20180;-64
2023/12/06 11:24:35;;;;;;;4.90;4.00;;;6.20;74.10;;;;;;5054162;28;20033;-65
2023/12/06 11:27:01;;;;;;;6.15;3.97;;;6.30;74.20;;;;;;5047447;28;20051;-63
2023/12/06 11:29:27;;;;;;;5.50;4.28;;;6.20;74.20;;;;;;5048165;28;20057;-63
2023/12/06 11:31:58;;;;;;;5.13;4.30;;;6.20;74.20;;;;;;5047104;28;20116;-64
2023/12/06 11:34:34;;;;;;;7.05;4.30;;;6.20;74.30;;;;;;5048749;28;20025;-64
2023/12/06 11:37:03;;;;;;;7.05;4.72;;;6.20;74.20;;;;;;5050493;28;20098;-65
2023/12/06 11:39:29;;;;;;;5.95;4.65;;;6.20;74.10;;;;;;5049021;28;20025;-64
2023/12/06 11:41:55;;;;;;;6.75;4.65;;;6.20;74.20;;;;;;5050370;28;20037;-63
2023/12/06 11:44:21;;;;;;;6.35;5.03;;;6.20;74.20;;;;;;5046979;28;20025;-64
2023/12/06 11:46:49;;;;;;;6.43;5.63;;;6.20;74.10;;;;;;4967917;28;20025;-64
2023/12/06 11:49:15;;;;;;;7.00;5.85;;;6.20;74.00;;;;;;5047537;28;20040;-64
2023/12/06 11:51:41;;;;;;;8.32;5.75;;;6.20;73.80;;;;;;5047388;28;20040;-64
2023/12/06 11:54:06;;;;;;;8.20;6.28;;;6.20;73.70;;;;;;5040184;28;20025;-65
2023/12/06 11:56:32;;;;;;;7.18;5.68;;;6.20;73.80;;;;;;5048214;28;20027;-65
2023/12/06 11:58:58;;;;;;;8.48;6.35;;;6.10;73.80;;;;;;5049429;28;20132;-64
2023/12/06 12:01:25;;;;;;;8.25;6.35;;;6.10;73.70;;;;;;5048757;28;20128;-64
2023/12/06 12:03:51;;;;;;;7.28;5.85;;;6.10;73.80;;;;;;5048808;28;20442;-65
2023/12/06 12:06:18;;;;;;;8.05;6.20;;;6.00;73.80;;;;;;5050346;28;20023;-64
2023/12/06 12:08:44;;;;;;;8.88;6.50;;;6.10;74.00;;;;;;5049276;28;20037;-64
2023/12/06 12:11:10;;;;;;;9.43;6.38;;;6.00;74.00;;;;;;5049436;28;20044;-64
2023/12/06 12:13:38;;;;;;;8.70;6.47;;;6.00;74.00;;;;;;5051827;28;20368;-63
2023/12/06 12:16:05;;;;;;;7.22;6.13;;;6.10;74.00;;;;;;5050992;28;20037;-65
2023/12/06 12:18:31;;;;;;;7.85;5.97;;;6.10;74.00;;;;;;5047022;28;20365;-64
2023/12/06 12:20:58;;;;;;;7.63;6.25;;;6.10;73.90;;;;;;5048072;28;20036;-65
2023/12/06 12:23:28;;;;;;;9.52;6.65;;;6.10;74.00;;;;;;5046176;28;20025;-64
2023/12/06 12:25:54;;;;;;;7.47;6.05;;;6.10;73.80;;;;;;5050363;28;20025;-64
2023/12/06 12:28:23;;;;;;;8.85;6.65;;;6.10;73.80;;;;;;5042941;28;20073;-63
2023/12/06 12:31:00;;;;;;;7.97;6.45;;;6.10;73.60;;;;;;5043568;28;20025;-64
2023/12/06 12:33:28;;;;;;;9.07;6.00;;;6.10;73.60;;;;;;5044425;28;20040;-64
2023/12/06 12:35:54;;;;;;;9.73;6.50;;;6.00;73.50;;;;;;5045897;28;20562;-64
2023/12/06 12:38:20;;;;;;;8.68;5.88;;;6.10;73.50;;;;;;5043188;28;20028;-65
2023/12/06 12:40:48;;;;;;;7.97;6.25;;;6.10;73.60;;;;;;5047219;28;20021;-65
2023/12/06 12:43:14;;;;;;;6.72;5.55;;;6.00;73.50;;;;;;5041935;28;20095;-64
2023/12/06 12:45:41;;;;;;;7.88;5.22;;;6.00;73.50;;;;;;5046333;28;20120;-64
2023/12/06 12:48:07;;;;;;;8.88;5.45;;;6.00;73.60;;;;;;5045123;28;20082;-64
2023/12/06 12:50:33;;;;;;;6.72;5.82;;;6.00;73.60;;;;;;5047719;28;20099;-64
2023/12/06 12:53:00;;;;;;;7.90;5.93;;;6.00;73.50;;;;;;5047136;28;20036;-64